N575JT LEGE-LFMN
Flight info
| Callsign | N575JT |
|---|---|
| Flight time | N/A |
| Altitude | 6000 |
| Route | BGR L110 DIBER DCT SOSUR DCT SOFFY DCT MRM DCT ABLAK |
| Aircraft | DA42/L-SBDGRY/S |
Departure
| Time | 2026-04-30 13:35 |
|---|---|
| Airport | Girona-Costa Brava Airport (LEGE) |
Arrival
| Time | N/A |
|---|---|
| Airport | Nice-Côte d'Azur Airport (LFMN) |
| Time | Latitude | Longitude | Altitude | Speed | Heading |
|---|---|---|---|---|---|
| 2026-04-30 13:19 | 41.89656 | 2.76230 | 415 ft | 0 kts | 285° |
| 2026-04-30 13:30 | 41.89656 | 2.76229 | 415 ft | 1 kts | 295° |
| 2026-04-30 13:31 | 41.89685 | 2.76248 | 416 ft | 10 kts | 25° |
| 2026-04-30 13:31 | 41.89820 | 2.76197 | 420 ft | 23 kts | 195° |
| 2026-04-30 13:32 | 41.89569 | 2.76037 | 411 ft | 17 kts | 236° |
| 2026-04-30 13:32 | 41.89550 | 2.75998 | 410 ft | 5 kts | 233° |
| 2026-04-30 13:33 | 41.89567 | 2.75856 | 410 ft | 5 kts | 15° |
| 2026-04-30 13:33 | 41.89586 | 2.75864 | 411 ft | 1 kts | 15° |
| 2026-04-30 13:34 | 41.89647 | 2.75886 | 412 ft | 25 kts | 17° |
| 2026-04-30 13:34 | 41.91058 | 2.76396 | 729 ft | 88 kts | 17° |
| 2026-04-30 13:35 | 41.91634 | 2.76649 | 1143 ft | 84 kts | 19° |
| 2026-04-30 13:35 | 41.92831 | 2.76018 | 1594 ft | 118 kts | 295° |
| 2026-04-30 13:36 | 41.92289 | 2.73999 | 2110 ft | 128 kts | 204° |
| 2026-04-30 13:36 | 41.91441 | 2.73891 | 2376 ft | 124 kts | 160° |
| 2026-04-30 13:36 | 41.90518 | 2.75612 | 2874 ft | 123 kts | 86° |
| 2026-04-30 13:37 | 41.90640 | 2.76746 | 3132 ft | 122 kts | 81° |
| 2026-04-30 13:37 | 41.90904 | 2.79000 | 3628 ft | 122 kts | 82° |
| 2026-04-30 13:38 | 41.91170 | 2.81277 | 4132 ft | 124 kts | 81° |
| 2026-04-30 13:38 | 41.91302 | 2.82432 | 4364 ft | 126 kts | 82° |
| 2026-04-30 13:38 | 41.91558 | 2.84755 | 4876 ft | 127 kts | 83° |
| 2026-04-30 13:39 | 41.91822 | 2.87136 | 5369 ft | 130 kts | 83° |
| 2026-04-30 13:39 | 41.92088 | 2.89544 | 5869 ft | 131 kts | 84° |
| 2026-04-30 13:40 | 41.92226 | 2.90793 | 5974 ft | 144 kts | 85° |
| 2026-04-30 13:40 | 41.92377 | 2.92174 | 5988 ft | 154 kts | 84° |
| 2026-04-30 13:40 | 41.92538 | 2.93635 | 5988 ft | 162 kts | 84° |
| 2026-04-30 13:40 | 41.92705 | 2.95115 | 6148 ft | 156 kts | 84° |
| 2026-04-30 13:41 | 41.92863 | 2.96524 | 6401 ft | 149 kts | 85° |
| 2026-04-30 13:41 | 41.93014 | 2.97870 | 6647 ft | 145 kts | 85° |
| 2026-04-30 13:41 | 41.93160 | 2.99196 | 6881 ft | 142 kts | 85° |
| 2026-04-30 13:41 | 41.93304 | 3.00499 | 7119 ft | 140 kts | 85° |
| 2026-04-30 13:42 | 41.93447 | 3.01788 | 7362 ft | 140 kts | 86° |
| 2026-04-30 13:42 | 41.93588 | 3.03082 | 7608 ft | 140 kts | 86° |
| 2026-04-30 13:42 | 41.93874 | 3.05701 | 7977 ft | 151 kts | 85° |
| 2026-04-30 13:43 | 41.94031 | 3.07151 | 7991 ft | 163 kts | 85° |
| 2026-04-30 13:43 | 41.94200 | 3.08701 | 7991 ft | 172 kts | 85° |
| 2026-04-30 13:43 | 41.94379 | 3.10318 | 7990 ft | 177 kts | 84° |
| 2026-04-30 13:43 | 41.94562 | 3.11963 | 7988 ft | 179 kts | 84° |
| 2026-04-30 13:44 | 41.94742 | 3.13605 | 7990 ft | 180 kts | 84° |
| 2026-04-30 13:44 | 41.94924 | 3.15274 | 7989 ft | 181 kts | 84° |
| 2026-04-30 13:44 | 41.95106 | 3.16955 | 7991 ft | 182 kts | 84° |
| 2026-04-30 13:44 | 41.95290 | 3.18645 | 7990 ft | 183 kts | 85° |
| 2026-04-30 13:45 | 41.95658 | 3.22025 | 7988 ft | 182 kts | 84° |
| 2026-04-30 13:45 | 41.95840 | 3.23703 | 7985 ft | 181 kts | 84° |
| 2026-04-30 13:45 | 41.96021 | 3.25373 | 7987 ft | 180 kts | 84° |
| 2026-04-30 13:46 | 41.96202 | 3.27039 | 7988 ft | 180 kts | 84° |
| 2026-04-30 13:46 | 41.96380 | 3.28699 | 7987 ft | 179 kts | 84° |
| 2026-04-30 13:46 | 41.96558 | 3.30349 | 7987 ft | 178 kts | 84° |
| 2026-04-30 13:46 | 41.96735 | 3.31999 | 7987 ft | 178 kts | 84° |
| 2026-04-30 13:47 | 41.96912 | 3.33648 | 7988 ft | 178 kts | 84° |
| 2026-04-30 13:47 | 41.97088 | 3.35279 | 7988 ft | 178 kts | 84° |
| 2026-04-30 13:47 | 41.97265 | 3.36934 | 7988 ft | 178 kts | 84° |
| 2026-04-30 13:47 | 41.97442 | 3.38582 | 7989 ft | 178 kts | 84° |
| 2026-04-30 13:48 | 41.97619 | 3.40238 | 7989 ft | 178 kts | 84° |
| 2026-04-30 13:48 | 41.97794 | 3.41884 | 7988 ft | 178 kts | 84° |
| 2026-04-30 13:48 | 41.97970 | 3.43534 | 7988 ft | 178 kts | 84° |
| 2026-04-30 13:48 | 41.98146 | 3.45185 | 7987 ft | 179 kts | 84° |
| 2026-04-30 13:49 | 41.98322 | 3.46842 | 7989 ft | 178 kts | 84° |
| 2026-04-30 13:49 | 41.98497 | 3.48491 | 7987 ft | 178 kts | 84° |
| 2026-04-30 13:49 | 41.98670 | 3.50122 | 7988 ft | 178 kts | 84° |
| 2026-04-30 13:49 | 41.98845 | 3.51770 | 7987 ft | 178 kts | 84° |
| 2026-04-30 13:50 | 41.99019 | 3.53424 | 7993 ft | 178 kts | 84° |
| 2026-04-30 13:50 | 42.02524 | 3.99897 | 8069 ft | 177 kts | 72° |
| 2026-04-30 13:50 | 42.03196 | 4.01277 | 8109 ft | 178 kts | 52° |
| 2026-04-30 13:51 | 42.03897 | 4.02649 | 8108 ft | 178 kts | 63° |
| 2026-04-30 13:51 | 42.04294 | 4.04198 | 8110 ft | 177 kts | 81° |
| 2026-04-30 13:51 | 42.04466 | 4.05834 | 8116 ft | 177 kts | 86° |
| 2026-04-30 13:51 | 42.05584 | 4.28391 | 8117 ft | 12988 kts | 86° |
| 2026-04-30 13:52 | 42.06157 | 4.36801 | 8102 ft | 180 kts | 64° |
| 2026-04-30 13:52 | 42.06967 | 4.38080 | 8119 ft | 181 kts | 43° |
| 2026-04-30 13:52 | 42.07915 | 4.39201 | 8116 ft | 181 kts | 41° |
| 2026-04-30 13:52 | 42.08860 | 4.40329 | 8116 ft | 181 kts | 43° |
| 2026-04-30 13:53 | 42.09791 | 4.41479 | 8117 ft | 181 kts | 43° |
| 2026-04-30 13:53 | 42.10712 | 4.42629 | 8118 ft | 181 kts | 43° |
| 2026-04-30 13:53 | 42.45802 | 4.81375 | 8132 ft | 0 kts | 44° |
| 2026-04-30 13:53 | 42.70427 | 5.13358 | 8135 ft | 0 kts | 44° |
| 2026-04-30 13:54 | 43.00298 | 5.29266 | 8135 ft | 18371 kts | 44° |
| 2026-04-30 13:54 | 43.19659 | 5.21103 | 8137 ft | 0 kts | 44° |
| 2026-04-30 13:54 | 43.20487 | 5.22325 | 7707 ft | 184 kts | 51° |
| 2026-04-30 13:54 | 43.21161 | 5.23707 | 7814 ft | 170 kts | 61° |
| 2026-04-30 13:55 | 43.21816 | 5.25006 | 7963 ft | 162 kts | 53° |
| 2026-04-30 13:55 | 43.22604 | 5.26089 | 8098 ft | 160 kts | 42° |
| 2026-04-30 13:55 | 43.23588 | 5.26841 | 8132 ft | 166 kts | 23° |
| 2026-04-30 13:55 | 43.24706 | 5.27331 | 8136 ft | 172 kts | 18° |
| 2026-04-30 13:56 | 43.25892 | 5.27794 | 7958 ft | 185 kts | 18° |
| 2026-04-30 13:56 | 43.27127 | 5.28292 | 7705 ft | 184 kts | 19° |
| 2026-04-30 13:56 | 43.28346 | 5.28792 | 7465 ft | 182 kts | 19° |
| 2026-04-30 13:56 | 43.29553 | 5.29287 | 7220 ft | 181 kts | 20° |
| 2026-04-30 13:57 | 43.30741 | 5.29773 | 6983 ft | 180 kts | 20° |
| 2026-04-30 13:57 | 43.31939 | 5.30264 | 6746 ft | 180 kts | 20° |
| 2026-04-30 13:57 | 43.33144 | 5.30759 | 6504 ft | 182 kts | 21° |
| 2026-04-30 13:57 | 43.34366 | 5.31260 | 6268 ft | 187 kts | 21° |
| 2026-04-30 13:58 | 43.35645 | 5.31790 | 6164 ft | 193 kts | 24° |
| 2026-04-30 13:58 | 43.38021 | 5.32903 | 6158 ft | 169 kts | 36° |
| 2026-04-30 13:58 | 43.38992 | 5.33786 | 6158 ft | 164 kts | 39° |
| 2026-04-30 13:59 | 43.39943 | 5.34634 | 6157 ft | 162 kts | 37° |
| 2026-04-30 13:59 | 43.40899 | 5.35491 | 6142 ft | 168 kts | 37° |
| 2026-04-30 13:59 | 43.41879 | 5.36377 | 6155 ft | 175 kts | 38° |
| 2026-04-30 13:59 | 43.42923 | 5.37328 | 6149 ft | 183 kts | 37° |
| 2026-04-30 14:00 | 43.43995 | 5.38289 | 6153 ft | 185 kts | 38° |
| 2026-04-30 14:00 | 43.46197 | 5.40275 | 6156 ft | 194 kts | 38° |
| 2026-04-30 14:00 | 43.47333 | 5.41301 | 6151 ft | 195 kts | 38° |
| 2026-04-30 14:01 | 43.48462 | 5.42315 | 6150 ft | 189 kts | 37° |
| 2026-04-30 14:01 | 43.49183 | 5.42967 | 6143 ft | 185 kts | 40° |
| 2026-04-30 14:01 | 43.50068 | 5.44144 | 6152 ft | 172 kts | 57° |
| 2026-04-30 14:01 | 43.50627 | 5.45540 | 6154 ft | 163 kts | 73° |
| 2026-04-30 14:02 | 43.51031 | 5.46985 | 6155 ft | 163 kts | 71° |
| 2026-04-30 14:02 | 43.51443 | 5.48455 | 6146 ft | 166 kts | 72° |
| 2026-04-30 14:02 | 43.51865 | 5.49947 | 6143 ft | 169 kts | 72° |
| 2026-04-30 14:02 | 43.52289 | 5.51460 | 6143 ft | 167 kts | 73° |
| 2026-04-30 14:03 | 43.52704 | 5.52934 | 6152 ft | 163 kts | 71° |
| 2026-04-30 14:03 | 43.53098 | 5.54335 | 6162 ft | 155 kts | 72° |
| 2026-04-30 14:03 | 43.53494 | 5.55671 | 6165 ft | 145 kts | 69° |
| 2026-04-30 14:03 | 43.53895 | 5.56935 | 6134 ft | 142 kts | 69° |
| 2026-04-30 14:04 | 43.54222 | 5.58151 | 6131 ft | 132 kts | 84° |
| 2026-04-30 14:04 | 43.54099 | 5.59322 | 6128 ft | 120 kts | 116° |
| 2026-04-30 14:04 | 43.53513 | 5.60200 | 5891 ft | 130 kts | 144° |
| 2026-04-30 14:04 | 43.52690 | 5.60795 | 5712 ft | 140 kts | 149° |
| 2026-04-30 14:05 | 43.51786 | 5.61457 | 5457 ft | 151 kts | 140° |
| 2026-04-30 14:05 | 43.51090 | 5.62529 | 5259 ft | 150 kts | 132° |
| 2026-04-30 14:05 | 43.50035 | 5.63306 | 4992 ft | 154 kts | 164° |
| 2026-04-30 14:05 | 43.48960 | 5.63212 | 4776 ft | 160 kts | 190° |
| 2026-04-30 14:06 | 43.48007 | 5.62381 | 4567 ft | 167 kts | 219° |
| 2026-04-30 14:06 | 43.47372 | 5.59286 | 4152 ft | 184 kts | 273° |
| 2026-04-30 14:07 | 43.47766 | 5.55831 | 4139 ft | 188 kts | 275° |
| 2026-04-30 14:07 | 43.47993 | 5.54011 | 4145 ft | 197 kts | 276° |
| 2026-04-30 14:07 | 43.48214 | 5.52141 | 4138 ft | 195 kts | 278° |
| 2026-04-30 14:08 | 43.48716 | 5.48690 | 4063 ft | 185 kts | 280° |
| 2026-04-30 14:08 | 43.49017 | 5.46938 | 3894 ft | 192 kts | 282° |
| 2026-04-30 14:08 | 43.49609 | 5.43319 | 3455 ft | 191 kts | 275° |
| 2026-04-30 14:09 | 43.49501 | 5.41568 | 3169 ft | 184 kts | 254° |
| 2026-04-30 14:09 | 43.49277 | 5.39782 | 3025 ft | 184 kts | 272° |
| 2026-04-30 14:09 | 43.48174 | 5.37557 | 3014 ft | 124 kts | 160° |
| 2026-04-30 14:10 | 43.47785 | 5.38409 | 3197 ft | 118 kts | 71° |
| 2026-04-30 14:10 | 43.48546 | 5.38975 | 3118 ft | 152 kts | 3° |
| 2026-04-30 14:10 | 43.49586 | 5.38347 | 2672 ft | 173 kts | 333° |
| 2026-04-30 14:10 | 43.50602 | 5.37638 | 2381 ft | 156 kts | 348° |
| 2026-04-30 14:11 | 43.51563 | 5.37022 | 2078 ft | 147 kts | 339° |
| 2026-04-30 14:11 | 43.52398 | 5.36278 | 1937 ft | 142 kts | 307° |
| 2026-04-30 14:11 | 43.52590 | 5.35070 | 1889 ft | 121 kts | 242° |
| 2026-04-30 14:11 | 43.51972 | 5.34720 | 1575 ft | 106 kts | 142° |
| 2026-04-30 14:12 | 43.51602 | 5.35666 | 852 ft | 124 kts | 126° |
| 2026-04-30 14:12 | 43.50964 | 5.36328 | 363 ft | 120 kts | 148° |
| 2026-04-30 14:12 | 43.50746 | 5.36524 | 379 ft | 101 kts | 148° |
| 2026-04-30 14:12 | 43.50417 | 5.36841 | 366 ft | 64 kts | 148° |
| 2026-04-30 14:13 | 43.50314 | 5.36962 | 366 ft | 0 kts | 358° |
| 2026-04-30 14:13 | 43.50315 | 5.36962 | 366 ft | 0 kts | 356° |
| 2026-04-30 14:13 | 43.50330 | 5.36995 | 366 ft | 11 kts | 59° |
| 2026-04-30 14:14 | 43.50358 | 5.37069 | 368 ft | 8 kts | 65° |
| 2026-04-30 14:14 | 43.50391 | 5.37086 | 366 ft | 6 kts | 322° |
| 2026-04-30 14:14 | 43.50402 | 5.37054 | 365 ft | 0 kts | 239° |